• Join FlightAware (Why Join?)
  • Login
  • US Flag 
11:16AM EDT


 

Airport Tracker/Info


-or-


 

Live Flight TrackerFlight Track Log ✈ BOE4 ✈ 22-Oct-2010 ✈ KBFI - KBFI

Flight Track Log - Related Links

Times and Time Zones

All times are in EDT time to prevent confusion due to time zone crossing. See the BOE4 flight status page for this flight to view local times or setup timezone preferences in your user account.

Time Position Orientation Groundspeed Altitude Reporting Facility
EDT Latitude Longitude Course Direction KTS MPH feet Rate Location/Type
10:22AM 47.5089 -122.2880 137° Southeast 170 196 1,200  Level Seattle Center
10:23AM 47.4522 -122.2090 147° Southeast 193 222 3,100 1,860 Climbing Seattle Center
10:24AM 47.3950 -122.1540 178° South 215 247 5,800 2,520 Climbing Seattle Center
10:25AM 47.3264 -122.1510 193° South 237 273 8,200 2,160 Climbing Seattle Center
10:26AM 47.2553 -122.1760 171° South 248 285 10,200 2,100 Climbing Seattle Center
10:27AM 47.1764 -122.1570 168° South 261 300 12,500 2,340 Climbing Seattle Center
10:28AM 47.0939 -122.1320 168° South 284 327 14,900 2,100 Climbing Seattle Center
10:29AM 47.0131 -122.1070 169° South 289 333 16,700 1,500 Climbing Seattle Center
10:30AM 46.9261 -122.0820 166° South 308 354 18,000 1,500 Climbing Seattle Center
10:31AM 46.8353 -122.0480 140° Southeast 326 375 19,700 1,680 Climbing Seattle Center
10:32AM 46.7600 -121.9570 135° Southeast 336 387 21,400 1,500 Climbing Seattle Center
10:33AM 46.6869 -121.8510 128° Southeast 348 400 22,800 1,020 Climbing Seattle Center
10:34AM 46.6203 -121.7250 123° Southeast 373 429 23,500 720 Climbing Seattle Center
10:35AM 46.5581 -121.5840 121° Southeast 401 461 24,300 660 Climbing Seattle Center
10:36AM 46.4936 -121.4280 122° Southeast 428 493 24,900 720 Climbing Seattle Center
10:37AM 46.4250 -121.2700 122° Southeast 448 516 25,800 1,020 Climbing Seattle Center
10:38AM 46.3542 -121.1060 121° Southeast 467 537 27,000 1,140 Climbing Seattle Center
10:39AM 46.2850 -120.9420 122° Southeast 472 543 28,100 900 Climbing Seattle Center
10:40AM 46.2136 -120.7780 124° Southeast 477 549 28,800 900 Climbing Seattle Center
10:41AM 46.1400 -120.6180 122° Southeast 482 555 29,900 1,200 Climbing Seattle Center
10:42AM 46.0681 -120.4530 122° Southeast 482 555 31,200 900 Climbing Seattle Center
10:43AM 45.9981 -120.2940 123° Southeast 482 555 31,800 660 Climbing Seattle Center
10:44AM 45.9300 -120.1440 122° Southeast 489 563 32,600 600 Climbing Seattle Center
10:45AM 45.8597 -119.9820 123° Southeast 489 563 33,000 180 Climbing Seattle Center
10:46AM 45.7869 -119.8240 123° Southeast 489 563 33,000  Level Seattle Center
10:47AM 45.7139 -119.6640 123° Southeast 489 563 33,000  Level Seattle Center
10:48AM 45.6408 -119.5010 123° Southeast 489 563 33,000  Level Seattle Center
10:49AM 45.5611 -119.3260 124° Southeast 489 563 33,000  Level Seattle Center
10:50AM 45.4875 -119.1700 123° Southeast 489 563 33,000  Level Seattle Center
10:51AM 45.4136 -119.0080 124° Southeast 489 563 33,000  Level Seattle Center
10:53AM 45.3108 -118.7930 124° Southeast 485 558 33,000  Level Salt Lake Center
10:54AM 45.2208 -118.6020 124° Southeast 486 559 33,000  Level Salt Lake Center
10:55AM 45.1458 -118.4440 124° Southeast 485 558 33,000  Level Salt Lake Center
10:56AM 45.0706 -118.2870 124° Southeast 485 558 33,000  Level Salt Lake Center
10:57AM 44.9950 -118.1300 124° Southeast 486 559 33,000  Level Salt Lake Center
10:58AM 44.9058 -117.9460 119° Southeast 482 555 33,000  Level Salt Lake Center
10:59AM 44.8439 -117.7910 95° East 479 551 33,000 -240 Level Salt Lake Center
11:00AM 44.8289 -117.5700 93° East 508 585 32,500 -1,260 Descending Salt Lake Center
11:01AM 44.8217 -117.3800 93° East 509 586 30,400 -1,680 Descending Salt Lake Center
11:02AM 44.8133 -117.1620 94° East 502 578 29,100 -180 Descending Salt Lake Center
11:03AM 44.8047 -116.9800 94° East 492 566 30,100 1,200 Climbing Salt Lake Center
11:04AM 44.7953 -116.7820 94° East 458 527 31,700 1,320 Climbing Salt Lake Center
11:05AM 44.7872 -116.6140 94° East 449 517 32,900 540 Climbing Salt Lake Center
11:06AM 44.7778 -116.4190 94° East 446 513 32,900  Level Salt Lake Center
11:07AM 44.7689 -116.2460 101° East 455 524 33,000  Climbing Salt Lake Center
11:08AM 44.7414 -116.0400 102° East 468 539 33,000  Level Salt Lake Center
11:10AM 44.7142 -115.8610 102° East 481 554 33,000  Level Salt Lake Center
11:11AM 44.6869 -115.6790 102° East 488 562 33,000  Level Salt Lake Center
11:12AM 44.6542 -115.4680 103° East 492 566 33,000  Level Salt Lake Center
11:13AM 44.6197 -115.2560 103° East 496 571 33,000  Level Salt Lake Center
11:14AM 44.5908 -115.0750 103° East 497 572 33,000  Level Salt Lake Center
11:15AM 44.5564 -114.8660 103° East 494 568 33,000  Level Salt Lake Center
11:16AM 44.5275 -114.6880 102° East 491 565 33,000  Level Salt Lake Center
11:17AM 44.4950 -114.4810 103° East 488 562 33,000  Level Salt Lake Center
11:18AM 44.4653 -114.3060 103° East 484 557 33,000  Level Salt Lake Center
11:19AM 44.4308 -114.1030 104° East 483 556 33,000  Level Salt Lake Center
11:20AM 44.3961 -113.9160 104° East 485 558 33,000  Level Salt Lake Center
11:21AM 44.3647 -113.7420 103° East 485 558 33,000  Level Salt Lake Center
11:22AM 44.3306 -113.5370 105° East 484 557 33,000  Level Salt Lake Center
11:23AM 44.2983 -113.3640 104° East 482 555 33,000  Level Salt Lake Center
11:24AM 44.2625 -113.1610 104° East 483 556 33,000  Level Salt Lake Center
11:25AM 44.2325 -112.9880 104° East 482 555 33,000  Level Salt Lake Center
11:26AM 44.1953 -112.7850 105° East 483 556 33,000  Level Salt Lake Center
11:27AM 44.1575 -112.5830 104° East 484 557 33,000  Level Salt Lake Center
11:28AM 44.1261 -112.4110 104° East 482 555 33,000  Level Salt Lake Center
11:29AM 44.0903 -112.2070 90° East 483 556 33,000  Level Salt Lake Center
11:30AM 44.0900 -112.0290 89° East 480 552 33,000  Level Salt Lake Center
11:31AM 44.0922 -111.8170 90° East 492 566 33,000  Level Salt Lake Center
11:32AM 44.0922 -111.6350 89° East 494 568 33,000  Level Salt Lake Center
11:34AM 44.0936 -111.4220 90° East 495 570 33,000  Level Salt Lake Center
11:35AM 44.0936 -111.2410 90° East 494 568 33,000  Level Salt Lake Center
11:36AM 44.0942 -111.0270 90° East 496 571 33,000  Level Salt Lake Center
11:37AM 44.0936 -110.8440 90° East 496 571 33,000  Level Salt Lake Center
11:38AM 44.0931 -110.6320 90° East 494 568 33,000  Level Salt Lake Center
11:39AM 44.0922 -110.4200 90° East 492 566 33,000  Level Salt Lake Center
11:40AM 44.0914 -110.2390 90° East 490 564 33,000  Level Salt Lake Center
11:41AM 44.0906 -110.0260 91° East 492 566 33,000  Level Salt Lake Center
11:42AM 44.0881 -109.8440 91° East 491 565 33,000  Level Salt Lake Center
11:43AM 44.0847 -109.6320 91° East 491 565 33,000  Level Salt Lake Center
11:44AM 44.0817 -109.4300 92° East 495 570 33,000  Level Salt Lake Center
11:45AM 44.0781 -109.2490 91° East 491 565 33,000  Level Salt Lake Center
11:46AM 44.0753 -109.0360 91° East 494 568 33,000  Level Salt Lake Center
11:47AM 44.0725 -108.8530 92° East 496 571 33,000  Level Salt Lake Center
11:48AM 44.0678 -108.6400 92° East 496 571 33,000  Level Salt Lake Center
11:49AM 44.0636 -108.4580 92° East 495 570 33,000  Level Salt Lake Center
11:50AM 44.0581 -108.2450 92° East 495 570 33,000  Level Salt Lake Center
11:51AM 44.0539 -108.0630 92° East 495 570 33,000  Level Salt Lake Center
11:52AM 44.0478 -107.8510 92° East 495 570 33,000  Level Salt Lake Center
11:53AM 44.0419 -107.6380 92° East 496 571 33,000  Level Salt Lake Center
11:54AM 44.0364 -107.4540 93° East 498 573 33,000  Level Salt Lake Center
11:56AM 44.0242 -107.1780 91° East 498 573 33,000  Level Denver Center
11:57AM 44.0231 -107.0560 93° East 499 574 33,000  Level Salt Lake Center
11:58AM 44.0153 -106.8440 93° East 495 570 33,000  Level Salt Lake Center
11:59AM 44.0075 -106.6310 92° East 495 570 33,000  Level Salt Lake Center
12:00PM 44.0036 -106.4360 90° East 496 571 33,000  Level Denver Center
12:01PM 44.0033 -106.2290 89° East 496 571 33,000  Level Denver Center
12:02PM 44.0047 -106.0380 90° East 496 571 33,000  Level Denver Center
12:03PM 44.0042 -105.8510 90° East 491 565 33,000  Level Denver Center
12:04PM 44.0050 -105.6780 90° East 490 564 33,000  Level Denver Center
12:05PM 44.0056 -105.4670 90° East 495 570 33,000  Level Denver Center
12:07PM 44.0039 -105.0840 90° East 495 570 33,000  Level Denver Center
12:08PM 44.0036 -104.9110 91° East 495 570 33,000  Level Denver Center
12:09PM 44.0006 -104.6970 90° East 500 575 33,000  Level Denver Center
12:10PM 43.9997 -104.5040 91° East 495 570 33,000  Level Denver Center
12:11PM 43.9983 -104.3110 91° East 495 570 33,000  Level Denver Center
12:12PM 43.9950 -104.1380 91° East 495 570 33,000  Level Denver Center
12:13PM 43.9928 -103.9270 91° East 495 570 33,000  Level Denver Center
12:14PM 43.9906 -103.7310 91° East 503 579 33,000  Level Denver Center
12:15PM 43.9881 -103.5380 92° East 498 573 33,000  Level Denver Center
12:16PM 43.9833 -103.3630 91° East 498 573 33,000  Level Denver Center
12:17PM 43.9803 -103.1670 91° East 498 573 33,000  Level Denver Center
12:19PM 43.9731 -102.7840 91° East 504 580 33,000  Level Denver Center
12:20PM 43.9706 -102.5820 93° East 498 573 33,000  Level Denver Center
12:22PM 43.9558 -102.2280 93° East 516 594 33,000  Level Minneapolis Center
12:23PM 43.9467 -102.0240 92° East 523 602 33,000  Level Minneapolis Center
12:24PM 43.9408 -101.8270 92° East 523 602 33,000  Level Minneapolis Center
12:25PM 43.9347 -101.6300 93° East 523 602 33,000  Level Minneapolis Center
12:26PM 43.9264 -101.4260 94° East 523 602 33,000  Level Minneapolis Center
12:27PM 43.9158 -101.2230 92° East 523 602 33,000  Level Minneapolis Center
12:28PM 43.9108 -101.0260 94° East 523 602 33,000  Level Minneapolis Center
12:29PM 43.9011 -100.8250 95° East 523 602 33,000  Level Minneapolis Center
12:30PM 43.8894 -100.6220 93° East 523 602 33,000  Level Minneapolis Center
12:31PM 43.8814 -100.4220 94° East 523 602 33,000  Level Minneapolis Center
12:32PM 43.8711 -100.2190 93° East 523 602 33,000  Level Minneapolis Center
12:33PM 43.8622 -100.0160 94° East 523 602 33,000  Level Minneapolis Center
12:34PM 43.8511 -99.8131 95° East 523 602 33,000  Level Minneapolis Center
12:35PM 43.8394 -99.6128 94° East 523 602 33,000  Level Minneapolis Center
12:36PM 43.8294 -99.4131 96° East 523 602 33,000  Level Minneapolis Center
12:37PM 43.8150 -99.2128 94° East 523 602 33,000  Level Minneapolis Center
12:38PM 43.8044 -99.0103 95° East 523 602 33,000  Level Minneapolis Center
12:39PM 43.7917 -98.8078 94° East 523 602 33,000  Level Minneapolis Center
12:40PM 43.7811 -98.5881 95° East 523 602 33,000 -840 Level Minneapolis Center
12:41PM 43.7672 -98.3856 95° East 523 602 31,400 -1,800 Descending Minneapolis Center
12:42PM 43.7550 -98.1917 96° East 518 596 29,500 -1,080 Descending Minneapolis Center
12:43PM 43.7400 -98.0008 95° East 507 583 29,300 840 Descending Minneapolis Center
12:44PM 43.7289 -97.8131 96° East 502 578 31,300 1,740 Climbing Minneapolis Center
12:45PM 43.7150 -97.6311 97° East 486 559 32,800 840 Climbing Minneapolis Center
12:46PM 43.6989 -97.4433 95° East 486 559 33,000 60 Climbing Minneapolis Center
12:47PM 43.6869 -97.2531 96° East 493 567 33,000  Level Minneapolis Center
12:48PM 43.6706 -97.0539 96° East 513 590 33,000  Level Minneapolis Center
12:49PM 43.6558 -96.8581 100° East 518 596 33,000  Level Minneapolis Center
12:50PM 43.6306 -96.6586 101° East 523 602 33,000  Level Minneapolis Center
12:51PM 43.6028 -96.4650 101° East 523 602 33,000  Level Minneapolis Center
12:52PM 43.5744 -96.2717 101° East 523 602 33,000  Level Minneapolis Center
12:53PM 43.5461 -96.0728 103° East 518 596 33,000  Level Minneapolis Center
12:54PM 43.5131 -95.8736 101° East 525 604 33,000  Level Minneapolis Center
12:55PM 43.4839 -95.6753 102° East 525 604 33,000  Level Minneapolis Center
12:56PM 43.4544 -95.4769 102° East 525 604 33,000  Level Minneapolis Center
12:57PM 43.4225 -95.2786 103° East 531 611 33,000  Level Minneapolis Center
12:58PM 43.3881 -95.0778 102° East 531 611 33,000  Level Minneapolis Center
12:59PM 43.3575 -94.8800 102° East 531 611 33,000  Level Minneapolis Center
01:00PM 43.3247 -94.6767 103° East 531 611 33,000  Level Minneapolis Center
01:01PM 43.2914 -94.4792 103° East 531 611 33,000  Level Minneapolis Center
01:02PM 43.2575 -94.2792 104° East 531 611 33,000  Level Minneapolis Center
01:03PM 43.2214 -94.0794 103° East 526 605 33,000  Level Minneapolis Center
01:04PM 43.1869 -93.8800 102° East 532 612 33,000  Level Minneapolis Center
01:05PM 43.1564 -93.6833 105° East 532 612 33,000  Level Minneapolis Center
01:06PM 43.1169 -93.4814 99° East 532 612 33,000  Level Minneapolis Center
01:07PM 43.0942 -93.2769 88° East 532 612 33,000  Level Minneapolis Center
01:08PM 43.0997 -93.0725 88° East 527 606 33,000  Level Minneapolis Center
01:09PM 43.1033 -92.8847 87° East 538 619 33,000  Level Minneapolis Center
01:10PM 43.1103 -92.6772 88° East 538 619 33,000  Level Minneapolis Center
01:11PM 43.1175 -92.2936 89° East 529 609 33,000  Level Chicago Center
01:12PM 43.1206 -92.0833 89° East 540 621 33,000  Level Chicago Center
01:13PM 43.1231 -91.8814 88° East 540 621 33,000  Level Chicago Center
01:14PM 43.1275 -91.6739 88° East 540 621 33,000  Level Chicago Center
01:15PM 43.1314 -91.4636 89° East 545 627 33,000  Level Chicago Center
01:16PM 43.1331 -91.2531 90° East 545 627 33,000  Level Chicago Center
01:17PM 43.1342 -91.0481 90° East 550 633 33,000  Level Chicago Center
01:18PM 43.1350 -90.8378 89° East 550 633 33,000  Level Chicago Center
01:19PM 43.1375 -90.6272 90° East 550 633 33,000  Level Chicago Center
01:20PM 43.1375 -90.4194 92° East 550 633 33,000  Level Chicago Center
01:21PM 43.1331 -90.2175 90° East 545 627 33,000  Level Chicago Center
01:22PM 43.1322 -89.9869 90° East 545 627 33,000  Level Chicago Center
01:23PM 43.1311 -89.7964 90° East 551 634 33,000  Level Chicago Center
01:24PM 43.1317 -89.5889 91° East 551 634 33,000  Level Chicago Center
01:25PM 43.1300 -89.3811 91° East 546 628 33,000  Level Chicago Center
01:26PM 43.1278 -89.1736 91° East 546 628 33,000  Level Chicago Center
01:28PM 43.1222 -88.7583 91° East 552 635 33,000  Level Chicago Center
01:29PM 43.1186 -88.5250 91° East 552 635 33,000  Level Chicago Center
01:30PM 43.1169 -88.3175 87° East 552 635 33,000  Level Chicago Center
01:31PM 43.1253 -88.1069 86° East 547 629 33,000  Level Chicago Center
01:33PM 43.1450 -87.6939 86° East 552 635 33,000  Level Chicago Center
01:34PM 43.1544 -87.4831 87° East 552 635 33,000  Level Chicago Center
01:35PM 43.1619 -87.3092 86° East 540 621 33,000  Level Chicago Center
01:36PM 43.1725 -87.1011 87° East 540 621 33,000  Level Chicago Center
01:38PM 43.1867 -86.6819 87° East 540 621 33,000  Level Chicago Center
01:39PM 43.1942 -86.4764 101° East 540 621 33,000  Level Chicago Center
01:41PM 43.1375 -86.0692 119° Southeast 560 644 33,000  Level Chicago Center
01:42PM 43.0478 -85.8494 119° Southeast 590 679 33,000  Level Chicago Center
01:43PM 42.9711 -85.6636 118° Southeast 578 665 33,000  Level Chicago Center
01:44PM 42.8939 -85.4697 119° Southeast 573 659 33,000  Level Chicago Center
01:47PM 42.7233 -85.0578 119° Southeast 572 658 33,000  Level Cleveland Center
01:48PM 42.6453 -84.8658 119° Southeast 572 658 33,000  Level Cleveland Center
01:49PM 42.5686 -84.6800 121° Southeast 572 658 33,000  Level Cleveland Center
01:50PM 42.4856 -84.4914 121° Southeast 572 658 33,000  Level Cleveland Center
01:51PM 42.4061 -84.3094 119° Southeast 572 658 33,000  Level Cleveland Center
01:52PM 42.3267 -84.1192 119° Southeast 572 658 33,000  Level Cleveland Center
01:53PM 42.2586 -83.9556 120° Southeast 572 658 33,000  Level Cleveland Center
01:54PM 42.1783 -83.7692 119° Southeast 572 658 33,000  Level Cleveland Center
01:55PM 42.0922 -83.5633 122° Southeast 574 661 33,000  Level Cleveland Center
01:56PM 42.0050 -83.3775 126° Southeast 574 661 33,000  Level Cleveland Center
01:57PM 41.9111 -83.2033 125° Southeast 581 669 33,000  Level Cleveland Center
01:58PM 41.8272 -83.0408 125° Southeast 586 674 33,000  Level Cleveland Center
01:59PM 41.7369 -82.8706 125° Southeast 575 662 33,000  Level Cleveland Center
02:00PM 41.6344 -82.6778 125° Southeast 575 662 33,000  Level Cleveland Center
02:01PM 41.5517 -82.5197 127° Southeast 582 670 33,000  Level Cleveland Center
02:02PM 41.4564 -82.3481 118° Southeast 576 663 33,000  Level Cleveland Center
02:03PM 41.3842 -82.1661 78° East 581 669 33,000  Level Cleveland Center
02:04PM 41.4136 -81.9758 70° East 519 597 33,000  Level Cleveland Center
02:05PM 41.4703 -81.7719 69° East 510 587 33,000  Level Cleveland Center
02:06PM 41.5219 -81.5897 69° East 521 600 33,000  Level Cleveland Center
02:07PM 41.5733 -81.4075 69° East 526 605 33,000  Level Cleveland Center
02:08PM 41.6247 -81.2275 70° East 526 605 33,000  Level Cleveland Center
02:09PM 41.6733 -81.0444 69° East 521 600 33,000  Level Cleveland Center
02:10PM 41.7197 -80.8836 70° East 526 605 33,000  Level Cleveland Center
02:11PM 41.7703 -80.6944 73° East 526 605 33,000  Level Cleveland Center
02:12PM 41.8119 -80.5053 77° East 520 598 33,000  Level Cleveland Center
02:13PM 41.8450 -80.3128 77° East 526 605 33,000  Level Cleveland Center
02:14PM 41.8778 -80.1175 77° East 531 611 33,000  Level Cleveland Center
02:15PM 41.9100 -79.9219 78° East 532 612 33,000  Level Cleveland Center
02:16PM 41.9442 -79.7122 78° East 526 605 33,000  Level Cleveland Center
02:17PM 41.9758 -79.5161 77° East 526 605 33,000  Level Cleveland Center
02:18PM 42.0094 -79.3228 78° East 526 605 33,000  Level Cleveland Center
02:19PM 42.0403 -79.1267 78° East 526 605 33,000  Level Cleveland Center
02:20PM 42.0692 -78.9356 78° East 526 605 33,000 -1,020 Level Cleveland Center
02:21PM 42.0994 -78.7389 78° East 526 605 31,000 -2,040 Descending Cleveland Center
02:22PM 42.1278 -78.5561 78° East 519 597 29,000 -1,020 Descending Cleveland Center
02:23PM 42.1556 -78.3733 78° East 507 583 29,000  Level Cleveland Center
02:24PM 42.1869 -78.1758 79° East 513 590 29,000  Level Cleveland Center
02:25PM 42.2181 -77.9672 79° East 550 633 29,000 900 Level Cleveland Center
02:26PM 42.2464 -77.7614 79° East 563 648 30,800 2,040 Climbing Cleveland Center
02:27PM 42.2747 -77.5664 79° East 549 632 33,100 2,040 Climbing Cleveland Center
02:28PM 42.3011 -77.3797 79° East 515 593 34,900 660 Climbing Cleveland Center
02:29PM 42.3492 -77.0314 79° East 528 608 35,000  Climbing Boston Center
02:30PM 42.3781 -76.8253 80° East 546 628 35,000  Level Boston Center
02:31PM 42.4047 -76.6217 79° East 551 634 35,000  Level Boston Center
02:32PM 42.4328 -76.4211 80° East 551 634 35,000  Level Boston Center
02:33PM 42.4558 -76.2339 79° East 551 634 35,000  Level Boston Center
02:34PM 42.4833 -76.0328 80° East 551 634 35,000  Level Boston Center
02:35PM 42.5103 -75.8258 85° East 556 640 35,000  Level Boston Center
02:36PM 42.5228 -75.6181 90° East 556 640 35,000  Level Boston Center
02:37PM 42.5222 -75.4039 90° East 556 640 35,000  Level Boston Center
02:38PM 42.5214 -75.1925 90° East 556 640 35,000  Level Boston Center
02:39PM 42.5200 -74.9811 89° East 556 640 35,000  Level Boston Center
02:40PM 42.5225 -74.7642 90° East 561 646 35,000  Level Boston Center
02:41PM 42.5208 -74.5303 93° East 574 661 35,000  Level Boston Center
02:42PM 42.5139 -74.3358 92° East 574 661 35,000  Level Boston Center
02:43PM 42.5069 -74.1044 92° East 569 655 35,000  Level Boston Center
02:44PM 42.5014 -73.9100 93° East 569 655 35,000  Level Boston Center
02:45PM 42.4917 -73.6733 93° East 577 664 35,000  Level Boston Center
02:46PM 42.4833 -73.4592 91° East 572 658 35,000  Level Boston Center
02:47PM 42.4808 -73.2622 94° East 572 658 35,000  Level Boston Center
02:48PM 42.4694 -73.0622 93° East 567 652 35,000  Level Boston Center
02:49PM 42.4600 -72.8453 93° East 567 652 35,000  Level Boston Center
02:50PM 42.4503 -72.6314 94° East 567 652 35,000  Level Boston Center
02:51PM 42.4400 -72.4233 95° East 567 652 35,000  Level Boston Center
02:52PM 42.4253 -72.1925 94° East 562 647 35,000  Level Boston Center
02:53PM 42.4142 -71.9872 94° East 556 640 35,000  Level Boston Center
02:54PM 42.4047 -71.7822 94° East 556 640 35,000  Level Boston Center
02:55PM 42.3931 -71.5742 94° East 556 640 35,000  Level Boston Center
02:56PM 42.3831 -71.3861 114° Southeast 556 640 35,000  Level Boston Center
02:57PM 42.3206 -71.1989 162° South 547 629 35,000  Level Boston Center
02:58PM 42.1844 -71.1400 201° Southwest 483 556 35,000  Level Boston Center
02:59PM 42.0561 -71.2069 208° Southwest 413 475 35,000 -60 Level Boston Center
03:00PM 41.9381 -71.2903 207° Southwest 447 514 34,900 -300 Descending Boston Center
03:01PM 41.8139 -71.3761 211° Southwest 471 542 34,500 -420 Descending Boston Center
03:02PM 41.7042 -71.4642 218° Southwest 476 548 34,100 -300 Descending Boston Center
03:03PM 41.5928 -71.5797 219° Southwest 476 548 34,000 -60 Descending Boston Center
03:04PM 41.4914 -71.6892 220° Southwest 476 548 34,000  Level Boston Center
03:05PM 41.4128 -71.7786 219° Southwest 476 548 34,000  Level Boston Center
03:06PM 41.3008 -71.8986 221° Southwest 476 548 34,000  Level Boston Center
03:07PM 41.2033 -72.0097 220° Southwest 476 548 34,000  Level Boston Center
03:08PM 41.0911 -72.1344 220° Southwest 481 554 34,000  Level Boston Center
03:09PM 41.0144 -72.2200 220° Southwest 476 548 34,000  Level Boston Center
03:11PM 40.8042 -72.4567 223° Southwest 476 548 34,000  Level Boston Center
03:12PM 40.7122 -72.5689 223° Southwest 470 541 34,000  Level Boston Center
03:13PM 40.6183 -72.6833 223° Southwest 465 535 34,000  Level Boston Center
03:14PM 40.5264 -72.7950 222° Southwest 460 529 34,000  Level Boston Center
03:23PM 40.0691 -73.3383 221° Southwest -1  Descending FlightAware Approximate
03:26PM 39.4492 -74.0356 219° Southwest 456 525 34,000 7,740 Climbing Washington Center
03:27PM 39.3525 -74.1369 220° Southwest 461 531 34,000  Level Washington Center
03:28PM 39.2558 -74.2406 218° Southwest 461 531 34,000  Level Washington Center
03:29PM 39.1589 -74.3389 220° Southwest 461 531 34,000  Level Washington Center
03:30PM 39.0619 -74.4422 219° Southwest 461 531 34,000  Level Washington Center
03:31PM 38.9650 -74.5425 219° Southwest 456 525 34,000  Level Washington Center
03:32PM 38.8678 -74.6425 219° Southwest 456 525 34,000  Level Washington Center
03:33PM 38.7683 -74.7450 219° Southwest 461 531 34,000  Level Washington Center
03:34PM 38.6692 -74.8472 218° Southwest 466 536 34,000  Level Washington Center
03:35PM 38.5697 -74.9464 222° Southwest 471 542 34,000  Level Washington Center
03:36PM 38.4742 -75.0561 220° Southwest 465 535 34,000  Level Washington Center
03:37PM 38.3786 -75.1600 223° Southwest 459 528 34,000  Level Washington Center
03:38PM 38.2769 -75.2797 220° Southwest 454 522 34,000  Level Washington Center
03:39PM 38.1792 -75.3831 221° Southwest 459 528 34,000  Level Washington Center
03:40PM 38.1022 -75.4678 222° Southwest 459 528 34,000  Level Washington Center
03:41PM 37.9856 -75.5997 219° Southwest 459 528 34,000  Level Washington Center
03:42PM 37.8853 -75.7022 221° Southwest 469 540 34,000  Level Washington Center
03:43PM 37.7872 -75.8100 221° Southwest 469 540 34,000  Level Washington Center
03:44PM 37.6889 -75.9197 221° Southwest 469 540 34,000  Level Washington Center
03:45PM 37.5906 -76.0269 221° Southwest 469 540 34,000  Level Washington Center
03:46PM 37.4900 -76.1361 216° Southwest 469 540 34,000  Level Washington Center
03:47PM 37.3914 -76.2269 221° Southwest 475 547 34,000  Level Washington Center
03:48PM 37.2908 -76.3358 221° Southwest 481 554 34,000  Level Washington Center
03:49PM 37.1878 -76.4469 220° Southwest 481 554 34,000  Level Washington Center
03:50PM 37.0869 -76.5525 221° Southwest 481 554 34,000  Level Washington Center
03:51PM 36.9878 -76.6606 219° Southwest 481 554 34,000  Level Washington Center
03:52PM 36.8847 -76.7656 220° Southwest 481 554 34,000  Level Washington Center
03:53PM 36.7833 -76.8731 220° Southwest 481 554 34,000  Level Washington Center
03:54PM 36.6822 -76.9775 220° Southwest 481 554 34,000  Level Washington Center
03:55PM 36.5786 -77.0844 220° Southwest 481 554 34,000  Level Washington Center
03:56PM 36.4772 -77.1908 220° Southwest 481 554 34,000  Level Washington Center
03:57PM 36.3756 -77.2972 219° Southwest 481 554 34,000  Level Washington Center
03:58PM 36.2717 -77.4006 221° Southwest 481 554 34,000  Level Washington Center
03:59PM 36.1636 -77.5164 219° Southwest 471 542 34,000 -540 Level Washington Center
04:00PM 36.0594 -77.6219 220° Southwest 476 548 33,000 -1,440 Descending Washington Center
04:01PM 35.9597 -77.7244 217° Southwest 476 548 31,100 -1,920 Descending Washington Center
04:02PM 35.8600 -77.8167 218° Southwest 470 541 29,100 -1,080 Descending Washington Center
04:03PM 35.7581 -77.9136 218° Southwest 465 535 29,000 300 Descending Washington Center
04:04PM 35.6603 -78.0078 217° Southwest 484 557 29,800 1,620 Climbing Washington Center
04:05PM 35.5539 -78.1067 217° Southwest 489 563 32,300 2,100 Climbing Washington Center
04:06PM 35.4539 -78.1981 218° Southwest 476 548 34,100 1,200 Climbing Washington Center
04:07PM 35.3492 -78.2989 218° Southwest 476 548 34,700 780 Climbing Washington Center
04:08PM 35.2342 -78.4069 217° Southwest 476 548 35,700 600 Climbing Washington Center
04:09PM 35.1294 -78.5050 217° Southwest 476 548 36,000 60 Climbing Washington Center
04:13PM 34.7158 -78.8894 217° Southwest 494 568 36,000  Level Jacksonville Center
04:14PM 34.6225 -78.9744 217° Southwest 487 560 36,000  Level Jacksonville Center
04:15PM 34.5131 -79.0753 221° Southwest 492 566 36,000  Level Jacksonville Center
04:16PM 34.4119 -79.1803 217° Southwest 492 566 36,000  Level Jacksonville Center
04:17PM 34.3000 -79.2806 218° Southwest 497 572 36,000  Level Jacksonville Center
04:18PM 34.1922 -79.3806 214° Southwest 497 572 36,000  Level Jacksonville Center
04:19PM 34.0719 -79.4781 217° Southwest 497 572 36,000  Level Jacksonville Center
04:20PM 33.9639 -79.5750 217° Southwest 487 560 36,000  Level Jacksonville Center
04:21PM 33.8578 -79.6714 219° Southwest 487 560 36,000  Level Jacksonville Center
04:22PM 33.7519 -79.7728 216° Southwest 487 560 36,000  Level Jacksonville Center
04:23PM 33.6436 -79.8689 217° Southwest 492 566 36,000  Level Jacksonville Center
04:24PM 33.5375 -79.9647 216° Southwest 492 566 36,000  Level Jacksonville Center
04:25PM 33.4311 -80.0578 217° Southwest 492 566 36,000  Level Jacksonville Center
04:26PM 33.3247 -80.1531 218° Southwest 492 566 36,000  Level Jacksonville Center
04:27PM 33.2203 -80.2508 214° Southwest 492 566 36,000  Level Jacksonville Center
04:28PM 33.1033 -80.3458 218° Southwest 507 583 36,000  Level Jacksonville Center
04:29PM 33.0089 -80.4353 216° Southwest 498 573 36,000  Level Jacksonville Center
04:30PM 32.8981 -80.5297 216° Southwest 498 573 36,000  Level Jacksonville Center
04:31PM 32.7933 -80.6217 216° Southwest 492 566 36,000  Level Jacksonville Center
04:32PM 32.6844 -80.7156 216° Southwest 492 566 36,000  Level Jacksonville Center
04:33PM 32.5775 -80.8094 216° Southwest 492 566 36,000  Level Jacksonville Center
04:34PM 32.4703 -80.9031 216° Southwest 487 560 36,000  Level Jacksonville Center
04:35PM 32.3550 -81.0014 216° Southwest 477 549 36,000  Level Jacksonville Center
04:36PM 32.2539 -81.0894 216° Southwest 482 555 36,000  Level Jacksonville Center
04:37PM 32.1467 -81.1825 216° Southwest 487 560 36,000  Level Jacksonville Center
04:38PM 32.0372 -81.2750 215° Southwest 492 566 36,000  Level Jacksonville Center
04:39PM 31.9278 -81.3650 216° Southwest 492 566 36,000  Level Jacksonville Center
04:40PM 31.8203 -81.4572 216° Southwest 492 566 36,000  Level Jacksonville Center
04:41PM 31.7003 -81.5594 216° Southwest 487 560 36,000  Level Jacksonville Center
04:42PM 31.5906 -81.6536 215° Southwest 494 568 36,000  Level Jacksonville Center
04:43PM 31.4931 -81.7328 216° Southwest 487 560 36,000  Level Jacksonville Center
04:44PM 31.3731 -81.8367 215° Southwest 487 560 36,000  Level Jacksonville Center
04:46PM 31.1656 -82.0089 216° Southwest 493 567 36,000  Level Jacksonville Center
04:47PM 31.0575 -82.0994 216° Southwest 493 567 36,000  Level Jacksonville Center
04:48PM 30.9350 -82.2022 215° Southwest 493 567 36,000  Level Jacksonville Center
04:49PM 30.8247 -82.2925 216° Southwest 493 567 36,000  Level Jacksonville Center
04:50PM 30.7164 -82.3828 215° Southwest 493 567 36,000  Level Jacksonville Center
04:51PM 30.6042 -82.4725 232° Southwest 493 567 36,000  Level Jacksonville Center
04:52PM 30.5250 -82.5886 280° West 479 551 36,000  Level Jacksonville Center
04:53PM 30.5461 -82.7333 281° West 422 486 36,000  Level Jacksonville Center
04:54PM 30.5714 -82.8831 285° West 432 497 36,000  Level Jacksonville Center
04:55PM 30.6047 -83.0253 284° West 454 522 36,000  Level Jacksonville Center
04:56PM 30.6358 -83.1725 283° West 460 529 36,000  Level Jacksonville Center
04:57PM 30.6647 -83.3178 283° West 465 535 36,000  Level Jacksonville Center
04:58PM 30.6933 -83.4650 282° West 465 535 36,000  Level Jacksonville Center
04:59PM 30.7197 -83.6103 281° West 471 542 36,000  Level Jacksonville Center
05:00PM 30.7458 -83.7603 276° West 471 542 36,000  Level Jacksonville Center
05:01PM 30.7556 -83.8789 275° West 471 542 36,000  Level Jacksonville Center
05:02PM 30.7686 -84.0433 276° West 466 536 36,000  Level Jacksonville Center
05:03PM 30.7819 -84.1958 271° West 466 536 36,000  Level Jacksonville Center
05:04PM 30.7844 -84.3433 268° West 466 536 36,000  Level Jacksonville Center
05:05PM 30.7783 -84.5103 264° West 459 528 36,000  Level Jacksonville Center
05:06PM 30.7658 -84.6600 274° West 464 534 36,000  Level Jacksonville Center
05:07PM 30.7742 -84.8100 306° West 464 534 36,000  Level Jacksonville Center
05:08PM 30.8494 -84.9325 310° West 444 511 36,000  Level Jacksonville Center
05:09PM 30.9331 -85.0506 282° West 458 527 36,000 -60 Level Jacksonville Center
05:10PM 30.9597 -85.1964 266° West 443 510 35,900  Descending Jacksonville Center
05:11PM 30.9508 -85.3439 266° West 448 516 36,000  Climbing Jacksonville Center
05:12PM 30.9417 -85.4817 271° West 463 533 35,900 -60 Descending Jacksonville Center
05:13PM 30.9447 -85.6319 279° West 468 539 35,900  Level Jacksonville Center
05:14PM 30.9644 -85.7828 282° West 473 544 36,000  Climbing Jacksonville Center
05:15PM 30.9922 -85.9314 281° West 473 544 36,000  Level Jacksonville Center
05:16PM 31.0178 -86.0825 283° West 473 544 36,000  Level Jacksonville Center
05:17PM 31.0475 -86.2292 281° West 473 544 36,000  Level Jacksonville Center
05:18PM 31.0744 -86.3900 282° West 459 528 36,000  Level Jacksonville Center
05:19PM 31.1017 -86.5367 282° West 459 528 36,000  Level Jacksonville Center
05:20PM 31.1286 -86.6858 281° West 470 541 36,000  Level Jacksonville Center
05:21PM 31.1533 -86.8322 282° West 465 535 36,000  Level Jacksonville Center
05:22PM 31.1967 -87.0675 283° West 466 536 36,000  Level Houston Center
05:23PM 31.2244 -87.2117 282° West 466 536 36,000  Level Houston Center
05:24PM 31.2522 -87.3611 282° West 466 536 36,000  Level Houston Center
05:25PM 31.2778 -87.5056 280° West 466 536 36,000  Level Houston Center
05:26PM 31.3008 -87.6528 282° West 466 536 36,000  Level Houston Center
05:27PM 31.3261 -87.7975 282° West 466 536 36,000  Level Houston Center
05:28PM 31.3531 -87.9472 281° West 473 544 36,000  Level Houston Center
05:29PM 31.3781 -88.0919 279° West 461 531 36,000  Level Houston Center
05:30PM 31.3875 -88.1603 281° West 452 520 36,000  Level Memphis Center
05:31PM 31.4108 -88.3056 282° West 452 520 36,000  Level Memphis Center
05:32PM 31.4361 -88.4511 280° West 452 520 36,000  Level Memphis Center
05:33PM 31.4569 -88.5969 280° West 452 520 36,000  Level Memphis Center
05:34PM 31.4797 -88.7425 281° West 452 520 36,000  Level Memphis Center
05:35PM 31.5047 -88.8908 279° West 457 526 36,000  Level Memphis Center
05:36PM 31.5250 -89.0367 281° West 462 532 36,000  Level Memphis Center
05:37PM 31.5494 -89.1850 281° West 462 532 36,000  Level Memphis Center
05:38PM 31.5736 -89.3308 282° West 462 532 36,000  Level Memphis Center
05:40PM 31.6258 -89.6328 310° West 462 532 36,000  Level Memphis Center
05:41PM 31.7100 -89.7494 310° West 449 517 36,000 -240 Level Memphis Center
05:42PM 31.7919 -89.8661 285° West 457 526 35,600 -1,320 Descending Memphis Center
05:43PM 31.8239 -90.0103 279° West 447 514 33,400 -1,800 Descending Memphis Center
05:44PM 31.8450 -90.1617 282° West 459 528 32,000 -720 Descending Memphis Center
05:45PM 31.8722 -90.3083 318° Northwest 459 528 32,000  Level Memphis Center
05:46PM 31.9725 -90.4161 323° Northwest 450 518 32,000 900 Level Memphis Center
05:47PM 32.0789 -90.5094 307° West 456 525 33,900 1,920 Climbing Memphis Center
05:48PM 32.1519 -90.6247 281° West 456 525 35,900 1,020 Climbing Memphis Center
05:49PM 32.1744 -90.7622 279° West 448 516 36,000  Climbing Memphis Center
05:50PM 32.1947 -90.9122 279° West 453 521 36,000  Level Memphis Center
05:51PM 32.2147 -91.0669 279° West 463 533 36,000  Level Memphis Center
05:53PM 32.2658 -91.4389 279° West 469 540 36,000  Level Fort Worth Center
05:54PM 32.2853 -91.5900 277° West 476 548 36,000  Level Fort Worth Center
05:55PM 32.3006 -91.7414 279° West 467 537 36,000  Level Fort Worth Center
05:56PM 32.3197 -91.8900 278° West 467 537 36,000  Level Fort Worth Center
05:57PM 32.3364 -92.0364 279° West 461 531 36,000  Level Fort Worth Center
05:58PM 32.3553 -92.1853 278° West 461 531 36,000  Level Fort Worth Center
05:59PM 32.3739 -92.3342 277° West 461 531 36,000  Level Fort Worth Center
06:00PM 32.3903 -92.4833 279° West 461 531 36,000  Level Fort Worth Center
06:01PM 32.4081 -92.6203 277° West 456 525 36,000  Level Fort Worth Center
06:02PM 32.4239 -92.7644 276° West 445 512 36,000  Level Fort Worth Center
06:03PM 32.4378 -92.9114 278° West 445 512 36,000  Level Fort Worth Center
06:04PM 32.4553 -93.0558 277° West 445 512 36,000  Level Fort Worth Center
06:06PM 32.4839 -93.3450 278° West 445 512 36,000  Level Fort Worth Center
06:07PM 32.5008 -93.4894 277° West 440 506 36,000  Level Fort Worth Center
06:08PM 32.5156 -93.6317 276° West 440 506 36,000  Level Fort Worth Center
06:09PM 32.5281 -93.7717 278° West 440 506 36,000  Level Fort Worth Center
06:10PM 32.5444 -93.9092 277° West 440 506 36,000  Level Fort Worth Center
06:11PM 32.5589 -94.0514 277° West 440 506 36,000  Level Fort Worth Center
06:12PM 32.5731 -94.1889 245° Southwest 440 506 36,000  Level Fort Worth Center
06:13PM 32.5219 -94.3164 223° Southwest 411 473 36,000  Level Fort Worth Center
06:14PM 32.4283 -94.4181 222° Southwest 423 487 36,000  Level Fort Worth Center
06:15PM 32.3325 -94.5219 221° Southwest 439 505 36,000  Level Fort Worth Center
06:16PM 32.2347 -94.6208 202° Southwest 454 522 36,000  Level Fort Worth Center
06:17PM 32.1169 -94.6761 184° South 454 522 36,000  Level Fort Worth Center
06:18PM 31.9772 -94.6875 202° Southwest 470 541 36,000  Level Fort Worth Center
06:19PM 31.8575 -94.7450 222° Southwest 477 549 36,000 -60 Level Fort Worth Center
06:20PM 31.7614 -94.8456 237° Southwest 455 524 35,900  Descending Fort Worth Center
06:21PM 31.6947 -94.9644 236° Southwest 439 505 36,000  Climbing Fort Worth Center
06:22PM 31.6261 -95.0858 237° Southwest 444 511 36,000 -60 Level Fort Worth Center
06:23PM 31.5594 -95.2044 236° Southwest 449 517 35,900  Descending Fort Worth Center
06:25PM 31.4419 -95.4100 237° Southwest 431 496 36,000  Climbing Houston Center
06:26PM 31.3694 -95.5383 236° Southwest 431 496 36,000  Level Houston Center
06:27PM 31.3081 -95.6453 236° Southwest 436 502 36,000  Level Houston Center
06:28PM 31.2419 -95.7617 235° Southwest 436 502 36,000  Level Houston Center
06:29PM 31.1714 -95.8800 237° Southwest 436 502 36,000  Level Houston Center
06:31PM 31.0342 -96.1236 235° Southwest 430 495 36,000  Level Houston Center
06:32PM 30.9725 -96.2275 236° Southwest 435 501 36,000  Level Houston Center
06:33PM 30.9058 -96.3431 235° Southwest 435 501 36,000  Level Houston Center
06:34PM 30.8372 -96.4581 235° Southwest 435 501 36,000  Level Houston Center
06:35PM 30.7683 -96.5733 236° Southwest 435 501 36,000  Level Houston Center
06:36PM 30.7039 -96.6861 236° Southwest 430 495 36,000  Level Houston Center
06:37PM 30.6281 -96.8150 260° West 435 501 36,000  Level Houston Center
06:38PM 30.6081 -96.9489 269° West 413 475 36,000  Level Houston Center
06:39PM 30.6050 -97.0839 269° West 422 486 36,000  Level Houston Center
06:40PM 30.6036 -97.2211 273° West 422 486 36,000  Level Houston Center
06:41PM 30.6103 -97.3589 275° West 422 486 36,000  Level Houston Center
06:42PM 30.6194 -97.4847 277° West 427 491 36,000  Level Houston Center
06:43PM 30.6325 -97.6183 275° West 427 491 36,000  Level Houston Center
06:44PM 30.6431 -97.7564 275° West 427 491 36,000  Level Houston Center
06:45PM 30.6536 -97.8897 275° West 427 491 36,000  Level Houston Center
06:46PM 30.6639 -98.0278 275° West 427 491 36,000  Level Houston Center
06:47PM 30.6756 -98.1756 275° West 427 491 36,000  Level Houston Center
06:48PM 30.6856 -98.3114 276° West 427 491 36,000  Level Houston Center
06:49PM 30.6975 -98.4497 275° West 422 486 36,000  Level Houston Center
06:50PM 30.7072 -98.5856 275° West 428 493 36,000  Level Houston Center
06:51PM 30.7169 -98.7236 274° West 428 493 36,000  Level Houston Center
06:52PM 30.7242 -98.8592 276° West 428 493 36,000  Level Houston Center
06:53PM 30.7358 -98.9928 275° West 421 484 36,000  Level Houston Center
06:54PM 30.7450 -99.1286 276° West 429 494 36,000  Level Houston Center
06:55PM 30.7564 -99.2622 275° West 429 494 36,000  Level Houston Center
06:56PM 30.7672 -99.4006 273° West 429 494 36,000  Level Houston Center
06:57PM 30.7736 -99.5411 275° West 429 494 36,000  Level Houston Center
06:58PM 30.7844 -99.6747 274° West 429 494 36,000  Level Houston Center
06:59PM 30.7931 -99.8106 274° West 429 494 36,000  Level Houston Center
07:00PM 30.8014 -99.9489 275° West 429 494 36,000  Level Houston Center
07:01PM 30.8117 -100.0850 274° West 429 494 36,000  Level Houston Center
07:02PM 30.8197 -100.2230 274° West 429 494 36,000  Level Houston Center
07:03PM 30.8275 -100.3590 274° West 429 494 36,000  Level Houston Center
07:04PM 30.8358 -100.4880 273° West 436 502 36,000  Level Houston Center
07:05PM 30.8417 -100.6210 273° West 441 507 36,000  Level Houston Center
07:06PM 30.8489 -100.7620 274° West 436 502 36,000  Level Houston Center
07:07PM 30.8564 -100.8950 272° West 431 496 36,000  Level Houston Center
07:08PM 30.8614 -101.0360 275° West 431 496 36,000  Level Houston Center
07:09PM 30.8708 -101.1690 274° West 431 496 36,000  Level Houston Center
07:10PM 30.8797 -101.3080 274° West 425 489 36,000  Level Houston Center
07:11PM 30.8867 -101.4410 272° West 425 489 36,000  Level Houston Center
07:12PM 30.8908 -101.5820 273° West 431 496 36,000  Level Houston Center
07:14PM 30.9014 -101.8270 273° West 401 461 36,000  Level Albuquerque Center
07:15PM 30.9078 -101.9650 273° West 423 487 36,000  Level Albuquerque Center
07:16PM 30.9139 -102.1050 273° West 428 493 36,000  Level Albuquerque Center
07:17PM 30.9197 -102.2400 273° West 428 493 36,000  Level Albuquerque Center
07:18PM 30.9261 -102.3890 272° West 428 493 36,000  Level Albuquerque Center
07:19PM 30.9297 -102.5270 274° West 428 493 36,000  Level Albuquerque Center
07:20PM 30.9369 -102.6590 273° West 421 484 36,000  Level Albuquerque Center
07:21PM 30.9422 -102.7940 273° West 421 484 36,000  Level Albuquerque Center
07:22PM 30.9472 -102.9290 283° West 421 484 36,000 -60 Level Albuquerque Center
07:23PM 30.9728 -103.0640 288° West 421 484 35,900 -900 Descending Albuquerque Center
07:24PM 31.0086 -103.1920 289° West 421 484 34,200 -1,920 Descending Albuquerque Center
07:25PM 31.0464 -103.3170 288° West 415 478 32,100 -1,140 Descending Albuquerque Center
07:26PM 31.0794 -103.4390 288° West 410 472 32,000 480 Descending Albuquerque Center
07:27PM 31.1172 -103.5750 286° West 421 484 33,100 3,000 Climbing Albuquerque Center
07:28PM 31.1433 -103.6810 289° West 433 498 38,000 1,860 Climbing Albuquerque Center
07:29PM 31.1875 -103.8310 287° West 422 486 36,800 -60 Descending Albuquerque Center
07:30PM 31.2228 -103.9660 287° West 416 479 37,900 600 Climbing Albuquerque Center
07:31PM 31.2575 -104.0960 288° West 416 479 38,000  Climbing Albuquerque Center
07:32PM 31.2944 -104.2300 287° West 416 479 38,000  Level Albuquerque Center
07:33PM 31.3292 -104.3650 288° West 422 486 38,000  Level Albuquerque Center
07:34PM 31.3658 -104.4990 286° West 434 499 38,000  Level Albuquerque Center
07:35PM 31.3981 -104.6300 287° West 442 509 38,000  Level Albuquerque Center
07:36PM 31.4344 -104.7670 287° West 442 509 38,000  Level Albuquerque Center
07:37PM 31.4706 -104.9020 286° West 442 509 38,000  Level Albuquerque Center
07:38PM 31.5044 -105.0400 287° West 442 509 38,000  Level Albuquerque Center
07:39PM 31.5406 -105.1780 286° West 442 509 38,000  Level Albuquerque Center
07:40PM 31.5742 -105.3130 287° West 442 509 38,000  Level Albuquerque Center
07:41PM 31.6031 -105.4250 287° West 442 509 38,000  Level Albuquerque Center
07:42PM 31.6453 -105.5890 286° West 437 503 38,000  Level Albuquerque Center
07:43PM 31.6719 -105.7010 287° West 437 503 38,000  Level Albuquerque Center
07:44PM 31.7158 -105.8690 287° West 437 503 38,000  Level Albuquerque Center
07:45PM 31.7528 -106.0090 286° West 437 503 38,000  Level Albuquerque Center
07:46PM 31.7878 -106.1530 285° West 448 516 38,000  Level Albuquerque Center
07:47PM 31.8183 -106.2920 280° West 448 516 38,000  Level Albuquerque Center
07:48PM 31.8403 -106.4380 276° West 455 524 38,000  Level Albuquerque Center
07:49PM 31.8539 -106.5820 279° West 450 518 38,000  Level Albuquerque Center
07:50PM 31.8756 -106.7380 279° West 445 512 38,000  Level Albuquerque Center
07:51PM 31.8928 -106.8650 279° West 445 512 38,000  Level Albuquerque Center
07:52PM 31.9142 -107.0210 279° West 445 512 38,000  Level Albuquerque Center
07:53PM 31.9314 -107.1560 276° West 451 519 38,000  Level Albuquerque Center
07:54PM 31.9419 -107.2710 278° West 451 519 38,000  Level Albuquerque Center
07:55PM 31.9628 -107.4470 278° West 451 519 38,000  Level Albuquerque Center
07:56PM 31.9772 -107.5640 279° West 451 519 38,000  Level Albuquerque Center
07:57PM 31.9997 -107.7360 277° West 457 526 38,000  Level Albuquerque Center
07:58PM 32.0158 -107.8850 279° West 457 526 38,000  Level Albuquerque Center
07:59PM 32.0358 -108.0370 283° West 465 535 38,000  Level Albuquerque Center
08:00PM 32.0642 -108.1840 284° West 465 535 38,000  Level Albuquerque Center
08:01PM 32.0964 -108.3340 284° West 465 535 38,000  Level Albuquerque Center
08:02PM 32.1283 -108.4810 284° West 473 544 38,000  Level Albuquerque Center
08:03PM 32.1603 -108.6310 284° West 473 544 38,000  Level Albuquerque Center
08:04PM 32.1919 -108.7780 284° West 473 544 38,000  Level Albuquerque Center
08:05PM 32.2236 -108.9290 285° West 473 544 38,000  Level Albuquerque Center
08:06PM 32.2569 -109.0790 284° West 473 544 38,000  Level Albuquerque Center
08:07PM 32.2881 -109.2290 284° West 473 544 38,000  Level Albuquerque Center
08:08PM 32.3189 -109.3770 284° West 473 544 38,000  Level Albuquerque Center
08:09PM 32.3536 -109.5450 284° West 473 544 38,000  Level Albuquerque Center
08:10PM 32.3842 -109.6910 283° West 473 544 38,000  Level Albuquerque Center
08:11PM 32.4147 -109.8420 283° West 473 544 38,000  Level Albuquerque Center
08:12PM 32.4447 -109.9930 283° West 473 544 38,000  Level Albuquerque Center
08:13PM 32.4747 -110.1440 284° West 473 544 38,000  Level Albuquerque Center
08:14PM 32.5067 -110.2950 284° West 473 544 38,000  Level Albuquerque Center
08:15PM 32.5383 -110.4410 283° West 473 544 38,000  Level Albuquerque Center
08:16PM 32.5678 -110.5950 283° West 475 547 38,000  Level Albuquerque Center
08:17PM 32.5969 -110.7460 283° West 470 541 38,000  Level Albuquerque Center
08:18PM 32.6258 -110.8950 282° West 470 541 38,000  Level Albuquerque Center
08:19PM 32.6511 -111.0320 284° West 470 541 38,000  Level Albuquerque Center
08:20PM 32.6817 -111.1810 283° West 470 541 38,000  Level Albuquerque Center
08:21PM 32.7103 -111.3330 282° West 470 541 38,000  Level Albuquerque Center
08:22PM 32.7383 -111.4850 283° West 475 547 38,000  Level Albuquerque Center
08:23PM 32.7667 -111.6340 283° West 468 539 38,000  Level Albuquerque Center
08:24PM 32.7981 -111.8010 282° West 468 539 38,000  Level Albuquerque Center
08:25PM 32.8258 -111.9530 282° West 474 545 38,000  Level Albuquerque Center
08:26PM 32.8533 -112.1030 282° West 474 545 38,000  Level Albuquerque Center
08:27PM 32.8806 -112.2530 282° West 474 545 38,000  Level Albuquerque Center
08:28PM 32.9078 -112.4030 283° West 474 545 38,000  Level Albuquerque Center
08:29PM 32.9367 -112.5580 277° West 474 545 38,000  Level Albuquerque Center
08:30PM 32.9528 -112.7120 262° West 474 545 38,000  Level Albuquerque Center
08:31PM 32.9353 -112.8670 260° West 474 545 38,000  Level Albuquerque Center
08:32PM 32.9114 -113.0240 260° West 474 545 38,000  Level Albuquerque Center
08:33PM 32.8900 -113.1630 261° West 480 552 38,000  Level Albuquerque Center
08:34PM 32.8700 -113.3170 260° West 480 552 38,000  Level Albuquerque Center
08:35PM 32.8475 -113.4710 260° West 480 552 38,000  Level Albuquerque Center
08:37PM 32.8114 -113.7020 258° West 487 560 38,000  Level Los Angeles Center
08:38PM 32.7853 -113.8530 264° West 481 554 38,000  Level Los Angeles Center
08:39PM 32.7711 -114.0040 269° West 476 548 38,000  Level Los Angeles Center
08:40PM 32.7694 -114.1550 269° West 464 534 38,000  Level Los Angeles Center
08:41PM 32.7678 -114.3080 269° West 459 528 38,000  Level Los Angeles Center
08:42PM 32.7656 -114.4560 269° West 459 528 38,000  Level Los Angeles Center
08:43PM 32.7633 -114.6050 270° West 459 528 38,000  Level Los Angeles Center
08:44PM 32.7631 -114.7530 269° West 459 528 38,000  Level Los Angeles Center
08:45PM 32.7606 -114.9040 268° West 459 528 38,000  Level Los Angeles Center
08:46PM 32.7556 -115.0490 269° West 459 528 38,000  Level Los Angeles Center
08:47PM 32.7528 -115.1980 270° West 459 528 38,000  Level Los Angeles Center
08:48PM 32.7517 -115.3460 267° West 459 528 38,000  Level Los Angeles Center
08:49PM 32.7461 -115.4960 272° West 459 528 38,000  Level Los Angeles Center
08:50PM 32.7511 -115.6420 271° West 459 528 38,000  Level Los Angeles Center
08:51PM 32.7536 -115.7850 271° West 454 522 38,000  Level Los Angeles Center
08:52PM 32.7558 -115.9310 272° West 449 517 38,000  Level Los Angeles Center
08:53PM 32.7603 -116.0790 271° West 449 517 38,000  Level Los Angeles Center
08:54PM 32.7622 -116.2300 271° West 454 522 38,000  Level Los Angeles Center
08:55PM 32.7642 -116.3950 272° West 459 528 38,000  Level Los Angeles Center
08:56PM 32.7678 -116.5510 273° West 466 536 38,000  Level Los Angeles Center
08:57PM 32.7736 -116.7020 272° West 466 536 38,000  Level Los Angeles Center
08:58PM 32.7769 -116.8480 271° West 459 528 38,000  Level Los Angeles Center
08:59PM 32.7800 -116.9960 271° West 454 522 38,000  Level Los Angeles Center
09:00PM 32.7811 -117.1440 289° West 454 522 38,000  Level Los Angeles Center
09:01PM 32.8156 -117.2610 320° Northwest 427 491 38,000 -600 Level Los Angeles Center
09:02PM 32.9064 -117.3530 319° Northwest 410 472 36,900 -1,500 Descending Los Angeles Center
09:03PM 32.9994 -117.4490 312° West 418 481 35,000 -1,920 Descending Los Angeles Center
09:04PM 33.0753 -117.5510 301° West 418 481 33,100 -300 Descending Los Angeles Center
09:05PM 33.1364 -117.6710 301° West 423 487 34,500 1,860 Climbing Los Angeles Center
09:06PM 33.1956 -117.7870 312° West 418 481 36,900 1,440 Climbing Los Angeles Center
09:07PM 33.2692 -117.8850 326° Northwest 407 468 37,400 420 Climbing Los Angeles Center
09:08PM 33.3661 -117.9640 324° Northwest 398 458 37,800 300 Climbing Los Angeles Center
09:09PM 33.4672 -118.0510 327° Northwest 420 483 38,000 60 Climbing Los Angeles Center
09:10PM 33.5825 -118.1410 326° Northwest 443 510 38,000  Level Los Angeles Center
09:11PM 33.6731 -118.2150 326° Northwest 457 526 38,000  Level Los Angeles Center
09:12PM 33.7864 -118.3080 325° Northwest 457 526 38,000  Level Los Angeles Center
09:13PM 33.8953 -118.4010 333° Northwest 446 513 38,000  Level Los Angeles Center
09:14PM 34.0025 -118.4670 341° North 451 519 38,000  Level Los Angeles Center
09:15PM 34.1247 -118.5180 341° North 447 514 38,000  Level Los Angeles Center
09:16PM 34.2425 -118.5660 341° North 447 514 38,000  Level Los Angeles Center
09:17PM 34.3647 -118.6180 340° North 447 514 38,000  Level Los Angeles Center
09:18PM 34.4825 -118.6690 340° North 447 514 38,000  Level Los Angeles Center
09:19PM 34.6006 -118.7210 341° North 447 514 38,000  Level Los Angeles Center
09:20PM 34.7206 -118.7700 341° North 447 514 38,000  Level Los Angeles Center
09:21PM 34.8425 -118.8220 343° North 447 514 38,000  Level Los Angeles Center
09:22PM 34.9583 -118.8660 340° North 441 507 38,000  Level Los Angeles Center
09:23PM 35.0781 -118.9180 340° North 441 507 38,000  Level Los Angeles Center
09:24PM 35.1981 -118.9710 340° North 446 513 38,000  Level Los Angeles Center
09:25PM 35.3158 -119.0230 341° North 446 513 38,000  Level Los Angeles Center
09:26PM 35.4333 -119.0730 347° North 446 513 38,000  Level Los Angeles Center
09:27PM 35.6625 -119.1390 350° North 457 526 38,000  Level Oakland Center
09:28PM 35.7881 -119.1660 350° North 457 526 38,000  Level Oakland Center
09:29PM 35.9158 -119.1940 349° North 457 526 38,000  Level Oakland Center
09:30PM 36.0392 -119.2250 349° North 457 526 38,000  Level Oakland Center
09:31PM 36.1650 -119.2550 350° North 457 526 38,000  Level Oakland Center
09:32PM 36.2883 -119.2810 350° North 452 520 38,000  Level Oakland Center
09:33PM 36.4014 -119.3070 350° North 452 520 38,000  Level Oakland Center
09:34PM 36.5269 -119.3350 349° North 452 520 38,000  Level Oakland Center
09:35PM 36.6525 -119.3660 350° North 452 520 38,000  Level Oakland Center
09:36PM 36.7781 -119.3940 348° North 452 520 38,000  Level Oakland Center
09:37PM 36.9036 -119.4260 351° North 452 520 38,000  Level Oakland Center
09:38PM 37.0292 -119.4520 350° North 452 520 38,000  Level Oakland Center
09:39PM 37.1547 -119.4800 349° North 452 520 38,000  Level Oakland Center
09:40PM 37.2822 -119.5120 350° North 452 520 38,000  Level Oakland Center
09:41PM 37.4017 -119.5380 352° North 446 513 38,000  Level Oakland Center
09:42PM 37.5353 -119.5620 347° North 460 529 38,000  Level Oakland Center
09:43PM 37.6608 -119.5990 350° North 469 540 38,000  Level Oakland Center
09:44PM 37.7886 -119.6280 350° North 469 540 38,000  Level Oakland Center
09:45PM 37.9139 -119.6570 350° North 469 540 38,000  Level Oakland Center
09:46PM 38.0458 -119.6860 350° North 469 540 38,000  Level Oakland Center
09:47PM 38.1753 -119.7160 328° Northwest 469 540 38,000  Level Oakland Center
09:48PM 38.2806 -119.8010 316° Northwest 452 520 38,000  Level Oakland Center
09:49PM 38.3714 -119.9110 317° Northwest 440 506 38,000  Level Oakland Center
09:50PM 38.4619 -120.0190 318° Northwest 447 514 38,000  Level Oakland Center
09:51PM 38.5544 -120.1260 316° Northwest 447 514 38,000  Level Oakland Center
09:52PM 38.6428 -120.2340 318° Northwest 447 514 38,000  Level Oakland Center
09:53PM 38.7353 -120.3420 316° Northwest 447 514 38,000 240 Level Oakland Center
09:54PM 38.8233 -120.4510 318° Northwest 447 514 38,500 480 Climbing Oakland Center
09:55PM 38.9156 -120.5570 316° Northwest 447 514 39,000 240 Climbing Oakland Center
09:56PM 39.0075 -120.6710 316° Northwest 452 520 39,000  Level Oakland Center
09:57PM 39.0997 -120.7840 317° Northwest 452 520 39,000  Level Oakland Center
09:58PM 39.1914 -120.8960 317° Northwest 452 520 39,000  Level Oakland Center
09:59PM 39.2811 -121.0060 316° Northwest 452 520 39,000  Level Oakland Center
10:00PM 39.3728 -121.1190 316° Northwest 447 514 39,000  Level Oakland Center
10:01PM 39.4622 -121.2290 316° Northwest 447 514 39,000  Level Oakland Center
10:02PM 39.5433 -121.3320 316° Northwest 428 493 39,000  Level Oakland Center
10:03PM 39.6325 -121.4420 316° Northwest 428 493 39,000  Level Oakland Center
10:04PM 39.7217 -121.5540 316° Northwest 428 493 39,000  Level Oakland Center
10:05PM 39.8108 -121.6650 317° Northwest 445 512 39,000  Level Oakland Center
10:06PM 39.8997 -121.7740 316° Northwest 445 512 39,000  Level Oakland Center
10:07PM 39.9886 -121.8870 316° Northwest 445 512 39,000  Level Oakland Center
10:08PM 40.0772 -121.9990 318° Northwest 445 512 39,000  Level Oakland Center
10:09PM 40.1700 -122.1090 314° West 445 512 39,000  Level Oakland Center
10:10PM 40.2606 -122.2330 317° Northwest 452 520 39,000  Level Oakland Center
10:11PM 40.3653 -122.3630 316° Northwest 465 535 39,000  Level Oakland Center
10:12PM 40.4536 -122.4760 334° Northwest 459 528 39,000  Level Oakland Center
10:13PM 40.5714 -122.5500 350° North 459 528 39,000  Level Oakland Center
10:14PM 40.7064 -122.5830 349° North 465 535 39,000  Level Oakland Center
10:15PM 40.8372 -122.6160 349° North 470 541 39,000  Level Oakland Center
10:17PM 41.0533 -122.6700 349° North 490 564 39,000  Level Seattle Center
10:18PM 41.1900 -122.7040 350° North 490 564 39,000  Level Seattle Center
10:19PM 41.3206 -122.7340 350° North 485 558 39,000 -60 Level Seattle Center
10:20PM 41.4656 -122.7690 350° North 485 558 38,900 -60 Descending Seattle Center
10:21PM 41.5981 -122.8000 350° North 485 558 38,900  Level Seattle Center
10:22PM 41.7367 -122.8340 350° North 485 558 39,000  Climbing Seattle Center
10:23PM 41.8444 -122.8590 350° North 490 564 39,000  Level Seattle Center
10:24PM 41.9894 -122.8940 350° North 484 557 39,000 -60 Level Seattle Center
10:25PM 42.1239 -122.9260 349° North 484 557 38,900 -60 Descending Seattle Center
10:26PM 42.2583 -122.9610 349° North 484 557 38,900 60 Level Seattle Center
10:27PM 42.3950 -122.9960 350° North 484 557 39,100 240 Climbing Seattle Center
10:28PM 42.5297 -123.0280 350° North 484 557 39,400 300 Climbing Seattle Center
10:29PM 42.6683 -123.0610 349° North 494 568 39,700 300 Climbing Seattle Center
10:30PM 42.8069 -123.0970 349° North 500 575 40,000 120 Climbing Seattle Center
10:31PM 42.9478 -123.1330 349° North 506 582 40,000  Level Seattle Center
10:32PM 43.0864 -123.1690 349° North 506 582 40,000  Level Seattle Center
10:33PM 43.2228 -123.2050 350° North 506 582 40,000  Level Seattle Center
10:34PM 43.3594 -123.2380 349° North 506 582 40,000  Level Seattle Center
10:35PM 43.4978 -123.2750 349° North 506 582 40,000  Level Seattle Center
10:36PM 43.6344 -123.3120 350° North 501 577 40,000  Level Seattle Center
10:37PM 43.7731 -123.3460 349° North 501 577 40,000  Level Seattle Center
10:38PM 43.9114 -123.3830 350° North 506 582 40,000  Level Seattle Center
10:39PM 44.0644 -123.4210 349° North 506 582 40,000  Level Seattle Center
10:40PM 44.2031 -123.4580 349° North 506 582 40,000  Level Seattle Center
10:41PM 44.3436 -123.4960 349° North 506 582 40,000  Level Seattle Center
10:42PM 44.4819 -123.5340 354° North 506 582 40,000  Level Seattle Center
10:43PM 44.6231 -123.5550 16° North 506 582 40,000  Level Seattle Center
10:44PM 44.7625 -123.4990 37° Northeast 501 577 40,000  Level Seattle Center
10:45PM 44.8831 -123.3720 53° Northeast 499 574 40,000  Level Seattle Center
10:46PM 44.9628 -123.2220 55° Northeast 505 581 40,000  Level Seattle Center
10:47PM 45.0469 -123.0500 68° East 516 594 40,000  Level Seattle Center
10:48PM 45.1003 -122.8590 73° East 510 587 40,000  Level Seattle Center
10:49PM 45.1428 -122.6640 72° East 510 587 40,000  Level Seattle Center
10:50PM 45.1869 -122.4690 73° East 516 594 40,000  Level Seattle Center
10:51PM 45.2311 -122.2680 73° East 521 600 40,000  Level Seattle Center
10:52PM 45.2747 -122.0660 74° East 521 600 40,000  Level Seattle Center
10:53PM 45.3186 -121.8520 72° East 521 600 40,000  Level Seattle Center
10:54PM 45.3636 -121.6500 74° East 521 600 40,000  Level Seattle Center
10:55PM 45.4042 -121.4470 73° East 526 605 40,000  Level Seattle Center
10:56PM 45.4464 -121.2500 73° East 531 611 40,000  Level Seattle Center
10:57PM 45.4906 -121.0470 73° East 531 611 40,000  Level Seattle Center
10:58PM 45.5319 -120.8490 73° East 531 611 40,000  Level Seattle Center
10:59PM 45.5753 -120.6490 73° East 531 611 40,000  Level Seattle Center
11:00PM 45.6183 -120.4480 72° East 525 604 40,000  Level Seattle Center
11:01PM 45.6631 -120.2490 73° East 525 604 40,000  Level Seattle Center
11:02PM 45.7053 -120.0530 73° East 520 598 40,000  Level Seattle Center
11:03PM 45.7472 -119.8540 73° East 514 592 40,000  Level Seattle Center
11:04PM 45.7889 -119.6580 72° East 514 592 40,000  Level Seattle Center
11:05PM 45.8342 -119.4580 72° East 514 592 40,000  Level Seattle Center
11:06PM 45.8794 -119.2580 72° East 514 592 40,000  Level Seattle Center
11:07PM 45.9242 -119.0610 72° East 519 597 40,000  Level Seattle Center
11:08PM 45.9686 -118.8600 72° East 519 597 40,000  Level Seattle Center
11:09PM 46.0125 -118.6650 74° East 519 597 40,000  Level Seattle Center
11:10PM 46.0522 -118.4700 72° East 514 592 40,000  Level Seattle Center
11:11PM 46.0956 -118.2740 70° East 514 592 40,000  Level Seattle Center
11:12PM 46.1431 -118.0810 72° East 514 592 40,000  Level Seattle Center
11:13PM 46.1858 -117.8850 67° East 514 592 40,000  Level Seattle Center
11:14PM 46.2408 -117.6940 11° North 514 592 40,000  Level Seattle Center
11:15PM 46.3692 -117.6590 302° West 414 476 40,000  Level Seattle Center
11:16PM 46.4367 -117.8170 284° West 302 348 40,000  Level Seattle Center
11:17PM 46.4689 -118.0080 280° West 365 420 40,000  Level Seattle Center
11:18PM 46.4922 -118.1980 281° West 420 483 40,000  Level Seattle Center
11:19PM 46.5175 -118.3840 280° West 457 526 40,000  Level Seattle Center
11:20PM 46.5406 -118.5790 280° West 483 556 40,000  Level Seattle Center
11:21PM 46.5633 -118.7690 281° West 488 562 40,000  Level Seattle Center
11:22PM 46.5875 -118.9460 280° West 495 570 40,000  Level Seattle Center
11:23PM 46.6097 -119.1360 280° West 495 570 40,000  Level Seattle Center
11:24PM 46.6333 -119.3320 279° West 490 564 40,000  Level Seattle Center
11:25PM 46.6528 -119.5170 281° West 483 556 40,000  Level Seattle Center
11:26PM 46.6781 -119.7100 279° West 483 556 40,000  Level Seattle Center
11:27PM 46.6989 -119.9040 279° West 483 556 40,000  Level Seattle Center
11:28PM 46.7192 -120.0910 279° West 483 556 40,000 -840 Level Seattle Center
11:29PM 46.7394 -120.2790 279° West 483 556 38,400 -2,400 Descending Seattle Center
11:30PM 46.7594 -120.4640 278° West 477 549 35,300 -3,360 Descending Seattle Center
11:31PM 46.7767 -120.6520 287° West 453 521 31,700 -3,180 Descending Seattle Center
11:32PM 46.8089 -120.8040 299° West 414 476 29,000 -2,580 Descending Seattle Center
11:33PM 46.8597 -120.9390 298° West 388 447 26,600 -2,100 Descending Seattle Center
11:34PM 46.9103 -121.0760 298° West 388 447 24,800 -1,800 Descending Seattle Center
11:35PM 46.9628 -121.2200 298° West 388 447 23,000 -1,800 Descending Seattle Center
11:36PM 47.0131 -121.3590 300° West 394 453 21,200 -1,920 Descending Seattle Center
11:37PM 47.0533 -121.4600 301° West 392 451 19,800 -1,860 Descending Seattle Center
11:38PM 47.1094 -121.5990 313° West 387 445 18,100 -1,500 Descending Seattle Center
11:38PM 47.1197 -121.6150 304° West 389 448 17,900 -1,320 Descending Seattle Center
11:39PM 47.1678 -121.7200 309° West 377 434 16,800 -1,200 Descending Seattle Center
11:39PM 47.1781 -121.7390 304° West 384 442 16,700 -1,800 Descending Seattle Center
11:40PM 47.2281 -121.8480 303° West 343 395 14,800 -2,460 Descending Seattle Center
11:41PM 47.2761 -121.9590 304° West 315 362 12,200 -1,980 Descending Seattle Center
11:42PM 47.3300 -122.0750 302° West 308 354 10,700 -1,080 Descending Seattle Center
11:43PM 47.3739 -122.1780 303° West 289 333 10,000 -960 Descending Seattle Center
11:44PM 47.4136 -122.2680 305° West 263 303 8,800 -1,560 Descending Seattle Center
11:45PM 47.4494 -122.3440 324° Northwest 270 311 6,900 -1,980 Descending Seattle Center
11:46PM 47.5042 -122.4040 332° Northwest 250 288 4,900 -1,800 Descending Seattle Center
11:47PM 47.5614 -122.4500 23° Northeast 234 269 3,400 -1,440 Descending Seattle Center
11:48PM 47.5975 -122.4270 97° East 146 168 2,100 -1,020 Descending Seattle Center
11:49PM 47.5925 -122.3690 137° Southeast 94 108 1,400 -780 Descending Seattle Center
11:50PM 47.5622 -122.3270 151° Southeast 100 115 600 -660 Descending Seattle Center
11:51PM 47.5356 -122.3050 125° Southeast 113 130 100 19,680 Descending Seattle Center
11:52PM 47.5178 -122.2670 133° Southeast 113 130 40,000 19,920 Climbing Seattle Center
11:53PM 47.4975 -122.2350 134° Southeast 113 130 40,000  Level Seattle Center
11:54PM 47.4772 -122.2040 133° Southeast 113 130 40,000  Level Seattle Center
11:55PM 47.4653 -122.1850 133° Southeast 113 130 40,000  Level Seattle Center